createdAt,value
2022-08-28T00:02:26.649Z,99146.47
2022-08-28T00:04:55.967Z,99149.22
2022-08-28T00:07:32.149Z,99144.16
2022-08-28T00:10:02.606Z,99140.13
2022-08-28T00:12:38.611Z,99137.25
2022-08-28T00:15:11.906Z,99136.31
2022-08-28T00:17:50.753Z,99139.31
2022-08-28T00:20:24.260Z,99139.28
2022-08-28T00:23:08.505Z,99148.59
2022-08-28T00:25:36.598Z,99148.09
2022-08-28T00:28:23.628Z,99147.78
2022-08-28T00:30:55.598Z,99145.44
2022-08-28T00:33:30.641Z,99140.53
2022-08-28T00:35:59.561Z,99142.53
2022-08-28T00:38:28.841Z,99144.38
2022-08-28T00:40:59.903Z,99145.38
2022-08-28T00:44:06.660Z,99145.38
2022-08-28T00:46:34.951Z,99152.03
2022-08-28T00:49:07.585Z,99154.28
2022-08-28T00:52:12.378Z,99151.88
2022-08-28T00:54:59.258Z,99152.34
2022-08-28T00:57:49.545Z,99149.38
2022-08-28T01:00:36.334Z,99146.00
2022-08-28T01:03:06.071Z,99141.72
2022-08-28T01:06:24.457Z,99141.03
2022-08-28T01:08:54.073Z,99146.53
2022-08-28T01:11:32.993Z,99141.66
2022-08-28T01:14:07.628Z,99138.75
2022-08-28T01:16:44.273Z,99129.97
2022-08-28T01:19:20.733Z,99127.44
2022-08-28T01:22:08.392Z,99132.63
2022-08-28T01:24:38.233Z,99131.41
2022-08-28T01:27:08.411Z,99137.25
2022-08-28T01:29:36.722Z,99135.78
2022-08-28T01:32:05.473Z,99135.56
2022-08-28T01:34:48.620Z,99139.72
2022-08-28T01:37:15.823Z,99133.00
2022-08-28T01:39:43.084Z,99143.22
2022-08-28T01:42:17.681Z,99145.50
2022-08-28T01:44:54.702Z,99145.41
2022-08-28T01:47:27.457Z,99145.53
2022-08-28T01:49:54.581Z,99146.50
2022-08-28T01:52:26.452Z,99153.81
2022-08-28T01:54:57.513Z,99156.50
2022-08-28T01:57:26.240Z,99147.50
2022-08-28T01:59:55.425Z,99148.19
2022-08-28T02:02:23.610Z,99135.34
2022-08-28T02:04:55.568Z,99145.41
2022-08-28T02:07:24.692Z,99150.44
2022-08-28T02:10:03.063Z,99148.72
2022-08-28T02:12:39.313Z,99154.53
2022-08-28T02:15:07.741Z,99154.28
2022-08-28T02:17:34.967Z,99163.44
2022-08-28T02:20:02.325Z,99156.97
2022-08-28T02:22:38.774Z,99165.75
2022-08-28T02:25:10.597Z,99166.06
2022-08-28T02:27:40.403Z,99162.31
2022-08-28T02:30:09.865Z,99158.41
2022-08-28T02:32:40.922Z,99155.41
2022-08-28T02:35:11.965Z,99154.03
2022-08-28T02:37:45.430Z,99155.22
2022-08-28T02:40:17.251Z,99155.56
2022-08-28T02:42:52.870Z,99153.41
2022-08-28T02:45:30.622Z,99147.81
2022-08-28T02:48:05.412Z,99144.53
2022-08-28T02:51:00.785Z,99143.09
2022-08-28T02:53:30.829Z,99144.72
2022-08-28T02:56:08.554Z,99140.91
2022-08-28T02:58:40.167Z,99139.13
2022-08-28T03:01:12.193Z,99145.56
2022-08-28T03:03:51.355Z,99137.00
2022-08-28T03:06:24.304Z,99149.91
2022-08-28T03:08:51.270Z,99140.19
2022-08-28T03:11:20.262Z,99141.81
2022-08-28T03:13:51.420Z,99147.22
2022-08-28T03:16:36.764Z,99146.25
2022-08-28T03:19:06.007Z,99151.63
2022-08-28T03:21:33.088Z,99149.56
2022-08-28T03:24:00.050Z,99152.84
2022-08-28T03:26:27.481Z,99148.94
2022-08-28T03:28:57.373Z,99161.00
2022-08-28T03:31:29.259Z,99157.69
2022-08-28T03:33:58.702Z,99157.41
2022-08-28T03:36:27.998Z,99145.25
2022-08-28T03:39:00.070Z,99156.72
2022-08-28T03:41:30.368Z,99156.72
2022-08-28T03:43:59.574Z,99156.19
2022-08-28T03:46:33.195Z,99158.38
2022-08-28T03:49:11.413Z,99156.81
2022-08-28T03:51:42.195Z,99166.56
2022-08-28T03:54:10.342Z,99163.88
2022-08-28T03:56:42.502Z,99161.44
2022-08-28T03:59:09.593Z,99174.09
2022-08-28T04:01:38.650Z,99173.25
2022-08-28T04:04:15.342Z,99172.06
2022-08-28T04:06:43.583Z,99173.41
2022-08-28T04:09:10.609Z,99176.31
2022-08-28T04:11:54.840Z,99178.84
2022-08-28T04:14:25.882Z,99174.44
2022-08-28T04:16:58.608Z,99181.41
2022-08-28T04:19:30.522Z,99187.75
2022-08-28T04:21:57.552Z,99191.50
2022-08-28T04:24:32.045Z,99190.91
2022-08-28T04:26:59.163Z,99188.53
2022-08-28T04:29:26.636Z,99189.91
2022-08-28T04:32:07.397Z,99199.75
2022-08-28T04:34:41.278Z,99202.38
2022-08-28T04:37:13.376Z,99190.91
2022-08-28T04:39:40.539Z,99196.69
2022-08-28T04:42:07.727Z,99193.16
2022-08-28T04:44:36.046Z,99189.34
2022-08-28T04:47:03.125Z,99190.19
2022-08-28T04:49:44.451Z,99204.88
2022-08-28T04:52:12.464Z,99201.72
2022-08-28T04:54:43.526Z,99205.97
2022-08-28T04:57:10.585Z,99199.41
2022-08-28T04:59:40.912Z,99195.22
2022-08-28T05:02:10.162Z,99201.53
2022-08-28T05:04:37.306Z,99198.66
2022-08-28T05:07:05.767Z,99203.38
2022-08-28T05:09:35.330Z,99208.72
2022-08-28T05:12:06.044Z,99203.84
2022-08-28T05:14:40.353Z,99197.44
2022-08-28T05:17:09.634Z,99202.91
2022-08-28T05:19:38.915Z,99204.00
2022-08-28T05:22:06.161Z,99206.13
2022-08-28T05:24:35.048Z,99197.97
2022-08-28T05:27:04.966Z,99199.00
2022-08-28T05:29:32.775Z,99209.13
2022-08-28T05:32:00.814Z,99197.88
2022-08-28T05:34:28.374Z,99197.06
2022-08-28T05:37:20.911Z,99204.63
2022-08-28T05:39:47.845Z,99206.28
2022-08-28T05:42:20.056Z,99203.69
2022-08-28T05:44:55.285Z,99207.38
2022-08-28T05:47:25.563Z,99199.00
2022-08-28T05:49:56.726Z,99209.78
2022-08-28T05:52:25.790Z,99205.00
2022-08-28T05:54:52.860Z,99205.00
2022-08-28T05:57:26.019Z,99215.53
2022-08-28T05:59:54.133Z,99215.22
2022-08-28T06:02:21.382Z,99217.97
2022-08-28T06:04:49.338Z,99214.81
2022-08-28T06:07:16.558Z,99212.28
2022-08-28T06:09:44.036Z,99218.81
2022-08-28T06:12:11.384Z,99216.28
2022-08-28T06:14:39.295Z,99214.28
2022-08-28T06:17:06.336Z,99210.19
2022-08-28T06:19:41.079Z,99220.53
2022-08-28T06:22:12.457Z,99216.72
2022-08-28T06:24:40.459Z,99216.00
2022-08-28T06:27:07.568Z,99220.69
2022-08-28T06:29:35.798Z,99217.84
2022-08-28T06:32:05.309Z,99217.97
2022-08-28T06:34:34.427Z,99226.47
2022-08-28T06:37:02.666Z,99220.53
2022-08-28T06:39:29.660Z,99226.59
2022-08-28T06:41:57.684Z,99234.53
2022-08-28T06:44:32.553Z,99227.34
2022-08-28T06:47:09.155Z,99230.84
2022-08-28T06:49:46.492Z,99238.94
2022-08-28T06:52:21.022Z,99245.84
2022-08-28T06:55:13.544Z,99240.91
2022-08-28T06:57:44.663Z,99227.75
2022-08-28T07:00:14.390Z,99242.59
2022-08-28T07:02:48.484Z,99232.97
2022-08-28T07:05:15.675Z,99235.44
2022-08-28T07:07:42.685Z,99227.31
2022-08-28T07:10:11.109Z,99229.53
2022-08-28T07:12:38.278Z,99226.53
2022-08-28T07:15:05.916Z,99233.38
2022-08-28T07:17:35.192Z,99234.78
2022-08-28T07:20:05.575Z,99240.47
2022-08-28T07:22:35.002Z,99234.97
2022-08-28T07:25:05.018Z,99232.38
2022-08-28T07:27:34.473Z,99223.28
2022-08-28T07:30:06.314Z,99225.44
2022-08-28T07:32:40.425Z,99231.84
2022-08-28T07:35:07.863Z,99230.59
2022-08-28T07:37:36.053Z,99227.97
2022-08-28T07:40:10.337Z,99225.94
2022-08-28T07:43:03.730Z,99225.38
2022-08-28T07:45:38.763Z,99231.28
2022-08-28T07:48:11.770Z,99223.44
2022-08-28T07:50:55.769Z,99223.34
2022-08-28T07:53:22.999Z,99219.41
2022-08-28T07:55:53.035Z,99229.91
2022-08-28T07:58:21.819Z,99224.41
2022-08-28T08:00:49.040Z,99229.50
2022-08-28T08:03:23.179Z,99226.97
2022-08-28T08:05:58.078Z,99227.09
2022-08-28T08:08:38.461Z,99225.72
2022-08-28T08:11:18.293Z,99228.28
2022-08-28T08:13:48.285Z,99229.13
2022-08-28T08:16:23.364Z,99233.31
2022-08-28T08:19:01.298Z,99229.38
2022-08-28T08:21:30.432Z,99228.06
2022-08-28T08:24:05.471Z,99240.41
2022-08-28T08:26:34.117Z,99233.69
2022-08-28T08:29:03.289Z,99226.66
2022-08-28T08:31:33.126Z,99227.66
2022-08-28T08:34:04.155Z,99239.44
2022-08-28T08:36:35.572Z,99235.81
2022-08-28T08:39:06.581Z,99240.31
2022-08-28T08:41:48.533Z,99231.72
2022-08-28T08:44:49.439Z,99237.72
2022-08-28T08:47:44.467Z,99245.34
2022-08-28T08:50:21.007Z,99249.84
2022-08-28T08:53:24.702Z,99249.41
2022-08-28T08:55:53.877Z,99244.13
2022-08-28T08:58:46.575Z,99245.34
2022-08-28T09:01:27.530Z,99248.03
2022-08-28T09:04:13.306Z,99253.28
2022-08-28T09:06:50.363Z,99243.47
2022-08-28T09:09:47.721Z,99243.06
2022-08-28T09:12:31.251Z,99246.84
2022-08-28T09:15:13.276Z,99254.97
2022-08-28T09:17:48.174Z,99248.63
2022-08-28T09:20:32.784Z,99252.91
2022-08-28T09:23:12.593Z,99254.59
2022-08-28T09:26:03.203Z,99247.16
2022-08-28T09:28:58.662Z,99252.00
2022-08-28T09:31:41.515Z,99253.38
2022-08-28T09:34:27.690Z,99247.94
2022-08-28T09:36:56.518Z,99253.22
2022-08-28T09:39:33.622Z,99251.19
2022-08-28T09:42:42.168Z,99243.31
2022-08-28T09:45:18.951Z,99254.34
2022-08-28T09:47:50.333Z,99258.44
2022-08-28T09:50:58.051Z,99262.81
2022-08-28T09:53:36.125Z,99255.31
2022-08-28T09:56:25.370Z,99265.28
2022-08-28T09:59:01.666Z,99258.03
2022-08-28T10:01:53.002Z,99248.53
2022-08-28T10:05:01.920Z,99258.69
2022-08-28T10:07:52.972Z,99254.00
2022-08-28T10:10:48.273Z,99261.06
2022-08-28T10:13:54.803Z,99262.63
2022-08-28T10:16:47.388Z,99259.81
2022-08-28T10:19:45.267Z,99260.78
2022-08-28T10:22:51.864Z,99262.81
2022-08-28T10:25:33.388Z,99261.69
2022-08-28T10:28:31.624Z,99257.00
2022-08-28T10:31:27.818Z,99255.03
2022-08-28T10:34:23.459Z,99256.78
2022-08-28T10:37:08.582Z,99251.28
2022-08-28T10:39:57.794Z,99255.16
2022-08-28T10:42:35.847Z,99257.19
2022-08-28T10:45:17.411Z,99265.31
2022-08-28T10:48:17.680Z,99268.38
2022-08-28T10:50:55.001Z,99262.72
2022-08-28T10:53:46.877Z,99257.34
2022-08-28T10:56:17.990Z,99264.63
2022-08-28T10:58:49.609Z,99257.69
2022-08-28T11:01:38.825Z,99264.91
2022-08-28T11:04:23.531Z,99255.41
2022-08-28T11:06:57.694Z,99261.03
2022-08-28T11:09:47.664Z,99262.56
2022-08-28T11:12:19.952Z,99263.47
2022-08-28T11:14:51.479Z,99263.56
2022-08-28T11:17:41.422Z,99253.69
2022-08-28T11:20:14.911Z,99253.59
2022-08-28T11:22:50.143Z,99261.22
2022-08-28T11:25:32.850Z,99260.84
2022-08-28T11:28:15.490Z,99259.19
2022-08-28T11:30:46.250Z,99262.91
2022-08-28T11:33:46.944Z,99258.19
2022-08-28T11:36:14.155Z,99268.38
2022-08-28T11:38:58.059Z,99264.63
2022-08-28T11:42:24.763Z,99266.84
2022-08-28T11:44:52.313Z,99268.53
2022-08-28T11:47:43.932Z,99264.28
2022-08-28T11:50:32.043Z,99256.69
2022-08-28T11:53:25.285Z,99258.94
2022-08-28T11:56:32.129Z,99260.31
2022-08-28T11:59:19.050Z,99249.19
2022-08-28T12:02:29.768Z,99251.75
2022-08-28T12:04:57.380Z,99256.56
2022-08-28T12:07:35.216Z,99257.59
2022-08-28T12:10:24.813Z,99251.81
2022-08-28T12:12:56.686Z,99254.53
2022-08-28T12:15:31.559Z,99263.47
2022-08-28T12:18:02.972Z,99256.44
2022-08-28T12:20:53.946Z,99251.97
2022-08-28T12:23:23.930Z,99247.63
2022-08-28T12:26:05.018Z,99239.94
2022-08-28T12:28:39.484Z,99245.34
2022-08-28T12:31:50.517Z,99248.16
2022-08-28T12:34:34.267Z,99250.06
2022-08-28T12:37:04.527Z,99254.94
2022-08-28T12:39:33.555Z,99263.94
2022-08-28T12:42:04.172Z,99254.13
2022-08-28T12:44:39.959Z,99268.38
2022-08-28T12:47:11.500Z,99282.91
2022-08-28T12:49:44.753Z,99282.13
2022-08-28T12:52:37.455Z,99284.63
2022-08-28T12:55:06.559Z,99292.38
2022-08-28T12:57:34.552Z,99313.25
2022-08-28T13:00:10.606Z,99305.47
2022-08-28T13:02:55.639Z,99315.16
2022-08-28T13:05:36.605Z,99314.25
2022-08-28T13:08:09.833Z,99323.22
2022-08-28T13:10:49.561Z,99320.97
2022-08-28T13:13:46.826Z,99310.22
2022-08-28T13:16:43.755Z,99303.34
2022-08-28T13:19:35.607Z,99313.44
2022-08-28T13:22:09.051Z,99311.81
2022-08-28T13:24:40.259Z,99315.25
2022-08-28T13:27:12.418Z,99328.88
2022-08-28T13:30:22.605Z,99318.13
2022-08-28T13:33:02.619Z,99320.88
2022-08-28T13:35:38.409Z,99318.88
2022-08-28T13:38:12.871Z,99318.75
2022-08-28T13:41:04.158Z,99313.09
2022-08-28T13:43:45.357Z,99308.41
2022-08-28T13:46:15.588Z,99318.75
2022-08-28T13:48:45.859Z,99318.50
2022-08-28T13:51:20.845Z,99321.59
2022-08-28T13:53:50.701Z,99318.19
2022-08-28T13:56:21.958Z,99322.97
2022-08-28T13:59:05.793Z,99311.19
2022-08-28T14:01:53.758Z,99309.53
2022-08-28T14:04:20.976Z,99309.63
2022-08-28T14:06:50.544Z,99317.47
2022-08-28T14:09:17.968Z,99314.44
2022-08-28T14:11:47.709Z,99305.25
2022-08-28T14:14:16.720Z,99309.47
2022-08-28T14:16:45.888Z,99319.38
2022-08-28T14:19:14.203Z,99309.97
2022-08-28T14:21:43.410Z,99307.97
2022-08-28T14:24:10.600Z,99314.06
2022-08-28T14:26:38.884Z,99305.94
2022-08-28T14:29:08.431Z,99318.09
2022-08-28T14:31:44.243Z,99309.25
2022-08-28T14:34:17.212Z,99310.91
2022-08-28T14:36:44.618Z,99319.41
2022-08-28T14:39:13.406Z,99317.56
2022-08-28T14:41:46.529Z,99320.16
2022-08-28T14:44:13.880Z,99314.38
2022-08-28T14:46:46.412Z,99316.53
2022-08-28T14:49:18.230Z,99321.59
2022-08-28T14:51:49.577Z,99320.72
2022-08-28T14:54:26.697Z,99313.47
2022-08-28T14:56:56.179Z,99310.59
2022-08-28T14:59:26.447Z,99320.31
2022-08-28T15:01:55.989Z,99317.28
2022-08-28T15:04:35.119Z,99327.56
2022-08-28T15:07:06.687Z,99325.66
2022-08-28T15:09:39.664Z,99319.84
2022-08-28T15:12:07.775Z,99328.81
2022-08-28T15:14:36.430Z,99325.13
2022-08-28T15:17:04.406Z,99327.97
2022-08-28T15:19:31.545Z,99322.66
2022-08-28T15:21:59.820Z,99320.94
2022-08-28T15:24:31.194Z,99325.06
2022-08-28T15:26:59.928Z,99344.97
2022-08-28T15:29:30.281Z,99345.69
2022-08-28T15:32:01.037Z,99347.69
2022-08-28T15:34:31.095Z,99348.25
2022-08-28T15:37:00.590Z,99350.38
2022-08-28T15:39:48.078Z,99358.47
2022-08-28T15:42:16.374Z,99357.31
2022-08-28T15:44:43.630Z,99356.41
2022-08-28T15:47:12.789Z,99371.13
2022-08-28T15:49:48.877Z,99360.94
2022-08-28T15:52:25.438Z,99363.66
2022-08-28T15:54:54.102Z,99371.41
2022-08-28T15:57:23.332Z,99380.03
2022-08-28T15:59:57.681Z,99383.31
2022-08-28T16:02:26.319Z,99373.41
2022-08-28T16:04:56.385Z,99373.13
2022-08-28T16:07:25.069Z,99370.59
2022-08-28T16:09:58.134Z,99370.81
2022-08-28T16:13:01.167Z,99375.22
2022-08-28T16:15:28.225Z,99375.63
2022-08-28T16:17:56.317Z,99372.63
2022-08-28T16:20:26.616Z,99376.19
2022-08-28T16:22:55.908Z,99372.25
2022-08-28T16:25:24.152Z,99359.75
2022-08-28T16:27:51.556Z,99375.03
2022-08-28T16:30:19.143Z,99368.81
2022-08-28T16:32:48.390Z,99383.63
2022-08-28T16:35:18.794Z,99376.66
2022-08-28T16:37:46.015Z,99391.09
2022-08-28T16:40:17.383Z,99381.31
2022-08-28T16:42:51.494Z,99390.91
2022-08-28T16:45:19.337Z,99397.13
2022-08-28T16:47:50.703Z,99399.69
2022-08-28T16:50:41.915Z,99407.88
2022-08-28T16:53:13.151Z,99396.41
2022-08-28T16:55:41.708Z,99401.31
2022-08-28T16:58:33.217Z,99398.16
2022-08-28T17:01:02.429Z,99398.16
2022-08-28T17:03:30.135Z,99401.66
2022-08-28T17:06:03.818Z,99402.44
2022-08-28T17:08:37.111Z,99409.31
2022-08-28T17:11:06.940Z,99406.44
2022-08-28T17:13:36.097Z,99413.44
2022-08-28T17:16:05.485Z,99411.13
2022-08-28T17:18:33.777Z,99417.00
2022-08-28T17:21:21.763Z,99415.56
2022-08-28T17:23:50.021Z,99426.75
2022-08-28T17:26:18.274Z,99438.47
2022-08-28T17:28:53.337Z,99429.72
2022-08-28T17:31:23.472Z,99436.53
2022-08-28T17:33:50.697Z,99439.50
2022-08-28T17:36:32.769Z,99435.59
2022-08-28T17:39:03.596Z,99448.78
2022-08-28T17:41:32.039Z,99443.16
2022-08-28T17:44:00.952Z,99443.78
2022-08-28T17:46:33.982Z,99445.72
2022-08-28T17:49:07.939Z,99448.78
2022-08-28T17:51:43.361Z,99443.19
2022-08-28T17:54:22.032Z,99443.19
2022-08-28T17:56:56.005Z,99453.44
2022-08-28T17:59:34.210Z,99458.59
2022-08-28T18:02:03.156Z,99460.78
2022-08-28T18:04:31.637Z,99461.75
2022-08-28T18:07:03.476Z,99468.59
2022-08-28T18:09:30.832Z,99467.84
2022-08-28T18:12:12.493Z,99461.81
2022-08-28T18:14:51.222Z,99467.84
2022-08-28T18:17:19.842Z,99474.13
2022-08-28T18:19:48.433Z,99474.13
2022-08-28T18:22:16.935Z,99475.47
2022-08-28T18:24:53.211Z,99477.59
2022-08-28T18:27:21.632Z,99482.81
2022-08-28T18:29:50.094Z,99481.13
2022-08-28T18:32:22.094Z,99488.50
2022-08-28T18:34:50.907Z,99491.31
2022-08-28T18:37:20.330Z,99488.97
2022-08-28T18:39:47.718Z,99490.13
2022-08-28T18:42:31.232Z,99498.06
2022-08-28T18:44:59.075Z,99495.56
2022-08-28T18:47:27.276Z,99489.59
2022-08-28T18:49:54.977Z,99502.44
2022-08-28T18:52:22.760Z,99497.50
2022-08-28T18:54:53.587Z,99497.78
2022-08-28T18:57:32.441Z,99507.75
2022-08-28T19:00:00.683Z,99506.16
2022-08-28T19:02:28.576Z,99507.25
2022-08-28T19:04:55.878Z,99510.66
2022-08-28T19:07:24.263Z,99519.78
2022-08-28T19:09:57.195Z,99515.38
2022-08-28T19:12:26.633Z,99516.59
2022-08-28T19:14:55.701Z,99516.34
2022-08-28T19:17:23.266Z,99522.03
2022-08-28T19:20:12.070Z,99528.88
2022-08-28T19:22:44.938Z,99526.31
2022-08-28T19:25:28.590Z,99537.78
2022-08-28T19:28:02.179Z,99538.78
2022-08-28T19:30:34.410Z,99539.59
2022-08-28T19:33:04.641Z,99534.00
2022-08-28T19:35:32.699Z,99537.19
2022-08-28T19:38:01.714Z,99535.88
2022-08-28T19:40:30.329Z,99537.44
2022-08-28T19:43:00.752Z,99537.56
2022-08-28T19:45:29.051Z,99537.19
2022-08-28T19:47:56.792Z,99534.75
2022-08-28T19:50:24.358Z,99536.97
2022-08-28T19:52:52.204Z,99538.19
2022-08-28T19:55:25.974Z,99539.47
2022-08-28T19:57:53.351Z,99539.31
2022-08-28T20:00:23.832Z,99538.13
2022-08-28T20:02:53.232Z,99545.75
2022-08-28T20:05:22.268Z,99544.31
2022-08-28T20:07:50.114Z,99545.78
2022-08-28T20:10:19.170Z,99551.78
2022-08-28T20:12:49.612Z,99541.56
2022-08-28T20:15:19.604Z,99542.91
2022-08-28T20:17:49.776Z,99549.47
2022-08-28T20:20:25.574Z,99549.25
2022-08-28T20:22:56.030Z,99553.16
2022-08-28T20:25:24.086Z,99554.09
2022-08-28T20:27:53.369Z,99544.38
2022-08-28T20:30:20.737Z,99542.66
2022-08-28T20:32:53.738Z,99554.47
2022-08-28T20:35:22.130Z,99557.16
2022-08-28T20:37:53.777Z,99556.56
2022-08-28T20:40:22.094Z,99560.31
2022-08-28T20:42:55.254Z,99553.63
2022-08-28T20:45:24.495Z,99556.09
2022-08-28T20:47:51.593Z,99557.63
2022-08-28T20:50:19.757Z,99561.06
2022-08-28T20:52:47.937Z,99554.34
2022-08-28T20:55:22.006Z,99555.72
2022-08-28T20:58:07.472Z,99560.22
2022-08-28T21:00:35.591Z,99561.19
2022-08-28T21:03:06.096Z,99561.91
2022-08-28T21:05:37.385Z,99551.66
2022-08-28T21:08:08.051Z,99556.94
2022-08-28T21:10:43.777Z,99556.81
2022-08-28T21:13:12.091Z,99552.28
2022-08-28T21:15:56.810Z,99567.41
2022-08-28T21:18:27.173Z,99566.06
2022-08-28T21:21:07.375Z,99566.78
2022-08-28T21:23:36.670Z,99561.63
2022-08-28T21:26:11.569Z,99570.44
2022-08-28T21:28:58.424Z,99568.50
2022-08-28T21:31:25.677Z,99573.88
2022-08-28T21:34:02.090Z,99570.22
2022-08-28T21:36:49.555Z,99571.78
2022-08-28T21:39:23.532Z,99580.69
2022-08-28T21:41:51.798Z,99576.78
2022-08-28T21:44:19.986Z,99576.41
2022-08-28T21:46:48.146Z,99587.88
2022-08-28T21:49:22.919Z,99586.78
2022-08-28T21:52:01.463Z,99593.25
2022-08-28T21:54:31.561Z,99595.94
2022-08-28T21:56:59.840Z,99603.38
2022-08-28T21:59:37.544Z,99596.28
2022-08-28T22:02:18.177Z,99604.97
2022-08-28T22:04:52.470Z,99604.06
2022-08-28T22:07:44.544Z,99599.69
2022-08-28T22:10:15.712Z,99592.72
2022-08-28T22:12:56.794Z,99598.63
2022-08-28T22:15:24.992Z,99609.34
2022-08-28T22:17:53.219Z,99607.50
2022-08-28T22:20:20.440Z,99604.81
2022-08-28T22:23:05.817Z,99605.69
2022-08-28T22:25:32.983Z,99604.19
2022-08-28T22:28:11.200Z,99593.09
2022-08-28T22:30:44.199Z,99606.28
2022-08-28T22:33:14.284Z,99612.13
2022-08-28T22:36:01.569Z,99614.81
2022-08-28T22:38:34.081Z,99608.47
2022-08-28T22:41:05.752Z,99615.31
2022-08-28T22:43:34.772Z,99614.69
2022-08-28T22:46:04.389Z,99609.44
2022-08-28T22:48:33.695Z,99617.72
2022-08-28T22:51:26.558Z,99612.59
2022-08-28T22:53:57.740Z,99620.75
2022-08-28T22:56:25.087Z,99619.66
2022-08-28T22:59:10.791Z,99615.66
2022-08-28T23:01:38.684Z,99629.16
2022-08-28T23:04:06.802Z,99631.22
2022-08-28T23:06:34.145Z,99624.97
2022-08-28T23:09:04.290Z,99625.72
2022-08-28T23:11:35.601Z,99624.03
2022-08-28T23:14:07.743Z,99616.72
2022-08-28T23:16:35.374Z,99621.72
2022-08-28T23:19:09.791Z,99628.59
2022-08-28T23:21:44.172Z,99627.94
2022-08-28T23:24:14.298Z,99636.34
2022-08-28T23:26:44.982Z,99631.97
2022-08-28T23:29:17.976Z,99631.69
2022-08-28T23:31:50.370Z,99634.22
2022-08-28T23:34:17.584Z,99624.63
2022-08-28T23:36:44.705Z,99640.13
2022-08-28T23:39:13.919Z,99632.66
2022-08-28T23:41:48.209Z,99629.44
2022-08-28T23:44:25.382Z,99637.22
2022-08-28T23:46:54.589Z,99635.38
2022-08-28T23:49:26.835Z,99638.97
2022-08-28T23:51:56.105Z,99638.47
2022-08-28T23:54:44.963Z,99644.78
2022-08-28T23:57:18.680Z,99644.56
2022-08-28T23:59:47.705Z,99641.28
